Lake Delta, New York
Current Conditions -  °F | °C
As of 8:53 PM on Wednesday 17 Dec 2014 (Local Time) from KRME Reporting Station
Overcast Overcast  
Wind Chill: 24°   Ceiling: 800
Heat Index: 33°   Visibility: 10mi
Dew Point: 32°   Wind: 13mph
Humidity: 96%   Direction: 270°W
Pressure: 29.89"   Gusts: NA
Location:  43.2466°N, 75.4624°W
Report Text: KRME 180153Z 27011KT 10SM OVC008 01/00 A2989 RMK AO2 UPB11E26RAB26E30SNE11 SLP125 P0000 T00060000
Loading
Personal Weather Stations






























Interactive Weather Map New forecast layout! Learn more

10-Day Weather Forecast

Advertisements
Track Severe Weather on mobile